createdAt,value
2024-02-16T00:00:50.270Z,100354.59
2024-02-16T00:03:52.800Z,100351.19
2024-02-16T00:06:55.475Z,100354.41
2024-02-16T00:09:58.033Z,100346.75
2024-02-16T00:13:01.883Z,100355.34
2024-02-16T00:16:04.709Z,100352.41
2024-02-16T00:19:07.278Z,100355.53
2024-02-16T00:22:09.824Z,100359.53
2024-02-16T00:25:12.745Z,100360.91
2024-02-16T00:28:16.584Z,100354.09
2024-02-16T00:31:20.701Z,100348.13
2024-02-16T00:34:23.421Z,100336.84
2024-02-16T00:37:26.091Z,100330.91
2024-02-16T00:40:28.601Z,100339.97
2024-02-16T00:43:32.606Z,100338.34
2024-02-16T00:46:35.299Z,100333.84
2024-02-16T00:49:37.906Z,100334.00
2024-02-16T00:52:40.707Z,100332.50
2024-02-16T00:55:46.841Z,100330.03
2024-02-16T00:58:50.700Z,100327.56
2024-02-16T01:01:53.220Z,100323.56
2024-02-16T01:05:03.017Z,100320.28
2024-02-16T01:08:06.353Z,100317.06
2024-02-16T01:11:09.519Z,100318.16
2024-02-16T01:14:13.413Z,100316.38
2024-02-16T01:17:15.958Z,100314.56
2024-02-16T01:20:18.535Z,100316.00
2024-02-16T01:23:21.499Z,100318.53
2024-02-16T01:26:24.004Z,100320.59
2024-02-16T01:29:27.860Z,100320.69
2024-02-16T01:32:30.422Z,100315.75
2024-02-16T01:35:32.941Z,100309.44
2024-02-16T01:38:35.819Z,100318.50
2024-02-16T01:41:40.630Z,100313.88
2024-02-16T01:44:44.455Z,100319.41
2024-02-16T01:47:49.243Z,100313.47
2024-02-16T01:50:52.438Z,100303.06
2024-02-16T01:53:56.692Z,100302.84
2024-02-16T01:56:59.362Z,100305.31
2024-02-16T02:00:04.183Z,100306.31
2024-02-16T02:03:06.796Z,100291.66
2024-02-16T02:06:09.483Z,100297.16
2024-02-16T02:09:12.172Z,100295.97
2024-02-16T02:12:15.494Z,100297.59
2024-02-16T02:15:20.531Z,100286.16
2024-02-16T02:18:23.207Z,100277.91
2024-02-16T02:21:26.614Z,100266.31
2024-02-16T02:24:30.787Z,100272.94
2024-02-16T02:27:34.265Z,100269.78
2024-02-16T02:30:36.975Z,100265.06
2024-02-16T02:33:39.812Z,100254.66
2024-02-16T02:36:42.576Z,100248.78
2024-02-16T02:39:46.488Z,100248.72
2024-02-16T02:42:48.992Z,100251.25
2024-02-16T02:45:51.489Z,100241.91
2024-02-16T02:48:54.290Z,100243.59
2024-02-16T02:51:56.962Z,100233.56
2024-02-16T02:55:00.782Z,100234.31
2024-02-16T02:58:03.378Z,100229.72
2024-02-16T03:01:06.551Z,100229.53
2024-02-16T03:04:10.662Z,100230.06
2024-02-16T03:07:13.379Z,100223.84
2024-02-16T03:10:22.338Z,100225.28
2024-02-16T03:13:24.894Z,100235.34
2024-02-16T03:16:28.183Z,100224.59
2024-02-16T03:19:30.898Z,100242.34
2024-02-16T03:22:33.408Z,100235.34
2024-02-16T03:25:37.220Z,100226.66
2024-02-16T03:28:39.669Z,100223.31
2024-02-16T03:31:42.178Z,100215.22
2024-02-16T03:34:45.744Z,100211.66
2024-02-16T03:37:48.371Z,100216.94
2024-02-16T03:40:52.405Z,100221.47
2024-02-16T03:43:55.520Z,100226.75
2024-02-16T03:46:58.046Z,100226.47
2024-02-16T03:50:00.687Z,100220.25
2024-02-16T03:53:03.242Z,100219.13
2024-02-16T03:56:08.605Z,100220.56
2024-02-16T03:59:12.133Z,100217.53
2024-02-16T04:02:15.440Z,100214.34
2024-02-16T04:05:17.965Z,100215.97
2024-02-16T04:08:20.524Z,100209.47
2024-02-16T04:11:24.474Z,100199.75
2024-02-16T04:14:27.089Z,100192.28
2024-02-16T04:17:29.623Z,100188.50
2024-02-16T04:20:32.268Z,100198.41
2024-02-16T04:23:34.820Z,100202.00
2024-02-16T04:26:38.636Z,100200.19
2024-02-16T04:29:41.098Z,100196.88
2024-02-16T04:32:43.651Z,100198.22
2024-02-16T04:35:47.818Z,100200.84
2024-02-16T04:38:50.564Z,100197.47
2024-02-16T04:41:54.642Z,100197.38
2024-02-16T04:44:57.313Z,100188.94
2024-02-16T04:48:00.339Z,100183.88
2024-02-16T04:51:03.102Z,100187.88
2024-02-16T04:54:06.004Z,100176.28
2024-02-16T04:57:09.990Z,100177.41
2024-02-16T05:00:14.098Z,100182.94
2024-02-16T05:03:16.955Z,100180.56
2024-02-16T05:06:19.563Z,100177.84
2024-02-16T05:09:22.299Z,100184.63
2024-02-16T05:12:26.397Z,100186.03
2024-02-16T05:15:29.088Z,100175.28
2024-02-16T05:18:31.674Z,100186.69
2024-02-16T05:21:35.178Z,100190.28
2024-02-16T05:24:37.924Z,100185.94
2024-02-16T05:27:42.120Z,100195.97
2024-02-16T05:30:45.130Z,100187.88
2024-02-16T05:33:51.118Z,100193.84
2024-02-16T05:36:53.760Z,100186.53
2024-02-16T05:40:08.744Z,100191.44
2024-02-16T05:43:13.046Z,100190.94
2024-02-16T05:46:16.617Z,100182.59
2024-02-16T05:49:19.239Z,100187.28
2024-02-16T05:52:22.145Z,100180.28
2024-02-16T05:55:25.831Z,100177.31
2024-02-16T05:58:30.208Z,100184.63
2024-02-16T06:01:32.753Z,100179.41
2024-02-16T06:04:35.574Z,100172.16
2024-02-16T06:07:39.966Z,100178.47
2024-02-16T06:10:42.962Z,100180.38
2024-02-16T06:13:47.020Z,100194.13
2024-02-16T06:16:49.495Z,100198.94
2024-02-16T06:19:52.177Z,100208.00
2024-02-16T06:22:54.790Z,100211.38
2024-02-16T06:25:57.475Z,100204.22
2024-02-16T06:29:02.046Z,100208.03
2024-02-16T06:32:04.626Z,100191.34
2024-02-16T06:35:08.492Z,100211.75
2024-02-16T06:38:11.560Z,100209.13
2024-02-16T06:41:14.665Z,100207.41
2024-02-16T06:44:21.665Z,100218.31
2024-02-16T06:47:27.267Z,100216.09
2024-02-16T06:50:29.960Z,100218.31
2024-02-16T06:53:32.476Z,100221.34
2024-02-16T06:56:35.004Z,100226.44
2024-02-16T06:59:38.812Z,100219.75
2024-02-16T07:02:42.220Z,100232.16
2024-02-16T07:05:44.789Z,100227.38
2024-02-16T07:08:47.481Z,100238.84
2024-02-16T07:11:53.333Z,100253.81
2024-02-16T07:14:58.603Z,100281.78
2024-02-16T07:18:02.364Z,100274.56
2024-02-16T07:21:05.562Z,100281.19
2024-02-16T07:24:10.204Z,100275.31
2024-02-16T07:27:12.926Z,100272.72
2024-02-16T07:30:23.369Z,100293.13
2024-02-16T07:33:30.253Z,100289.28
2024-02-16T07:36:35.615Z,100288.53
2024-02-16T07:39:38.280Z,100295.09
2024-02-16T07:42:43.550Z,100303.09
2024-02-16T07:45:48.044Z,100299.34
2024-02-16T07:48:51.277Z,100301.63
2024-02-16T07:51:54.029Z,100309.47
2024-02-16T07:54:56.535Z,100305.03
2024-02-16T07:57:59.084Z,100296.50
2024-02-16T08:01:04.562Z,100288.56
2024-02-16T08:04:07.254Z,100294.81
2024-02-16T08:07:10.461Z,100298.31
2024-02-16T08:10:13.830Z,100288.75
2024-02-16T08:13:16.455Z,100280.72
2024-02-16T08:16:20.274Z,100288.47
2024-02-16T08:19:22.904Z,100292.63
2024-02-16T08:22:25.450Z,100294.03
2024-02-16T08:25:28.456Z,100294.72
2024-02-16T08:28:30.995Z,100288.16
2024-02-16T08:31:34.796Z,100292.50
2024-02-16T08:34:38.275Z,100284.84
2024-02-16T08:37:40.951Z,100278.91
2024-02-16T08:40:43.722Z,100277.69
2024-02-16T08:43:46.366Z,100268.94
2024-02-16T08:46:51.797Z,100268.56
2024-02-16T08:49:54.319Z,100271.88
2024-02-16T08:52:56.886Z,100276.44
2024-02-16T08:55:59.414Z,100267.91
2024-02-16T08:59:01.907Z,100268.16
2024-02-16T09:02:06.777Z,100272.75
2024-02-16T09:05:10.927Z,100271.53
2024-02-16T09:08:14.283Z,100279.78
2024-02-16T09:11:18.375Z,100285.25
2024-02-16T09:14:20.879Z,100289.56
2024-02-16T09:17:24.792Z,100288.50
2024-02-16T09:20:27.361Z,100292.44
2024-02-16T09:23:29.949Z,100286.91
2024-02-16T09:26:34.904Z,100287.75
2024-02-16T09:29:37.597Z,100282.75
2024-02-16T09:32:43.256Z,100289.69
2024-02-16T09:35:45.903Z,100283.38
2024-02-16T09:38:48.869Z,100285.13
2024-02-16T09:41:53.301Z,100279.25
2024-02-16T09:44:56.858Z,100277.84
2024-02-16T09:48:04.096Z,100279.56
2024-02-16T09:51:10.391Z,100276.38
2024-02-16T09:54:13.604Z,100284.88
2024-02-16T09:57:18.820Z,100294.84
2024-02-16T10:00:21.424Z,100302.94
2024-02-16T10:03:26.779Z,100302.19
2024-02-16T10:06:29.466Z,100301.97
2024-02-16T10:09:33.500Z,100300.06
2024-02-16T10:12:36.618Z,100301.72
2024-02-16T10:15:39.627Z,100303.41
2024-02-16T10:18:43.690Z,100299.06
2024-02-16T10:21:46.301Z,100302.59
2024-02-16T10:24:48.847Z,100300.09
2024-02-16T10:27:55.734Z,100305.22
2024-02-16T10:31:01.105Z,100302.09
2024-02-16T10:34:08.035Z,100303.66
2024-02-16T10:37:11.441Z,100301.44
2024-02-16T10:40:18.849Z,100294.81
2024-02-16T10:43:23.335Z,100288.28
2024-02-16T10:46:26.443Z,100285.03
2024-02-16T10:49:30.751Z,100283.47
2024-02-16T10:52:35.531Z,100291.28
2024-02-16T10:55:38.359Z,100278.56
2024-02-16T10:58:41.381Z,100273.63
2024-02-16T11:01:44.935Z,100277.88
2024-02-16T11:04:50.261Z,100270.09
2024-02-16T11:08:02.253Z,100277.75
2024-02-16T11:11:05.116Z,100279.69
2024-02-16T11:14:17.163Z,100280.00
2024-02-16T11:17:22.908Z,100279.03
2024-02-16T11:20:28.112Z,100279.56
2024-02-16T11:23:31.688Z,100278.03
2024-02-16T11:26:34.943Z,100274.00
2024-02-16T11:29:39.465Z,100277.91
2024-02-16T11:32:44.818Z,100274.56
2024-02-16T11:35:56.525Z,100265.75
2024-02-16T11:38:59.080Z,100255.50
2024-02-16T11:42:03.680Z,100261.16
2024-02-16T11:45:07.805Z,100261.91
2024-02-16T11:48:12.769Z,100260.09
2024-02-16T11:51:18.194Z,100249.13
2024-02-16T11:54:20.851Z,100254.84
2024-02-16T11:57:24.174Z,100255.66
2024-02-16T12:00:27.140Z,100260.50
2024-02-16T12:03:29.909Z,100256.56
2024-02-16T12:06:34.000Z,100248.69
2024-02-16T12:09:37.563Z,100254.41
2024-02-16T12:12:40.582Z,100257.69
2024-02-16T12:15:43.547Z,100249.19
2024-02-16T12:18:46.943Z,100244.22
2024-02-16T12:21:52.700Z,100245.03
2024-02-16T12:24:55.176Z,100253.91
2024-02-16T12:27:57.674Z,100241.00
2024-02-16T12:31:02.389Z,100253.13
2024-02-16T12:34:08.616Z,100248.13
2024-02-16T12:37:12.592Z,100254.91
2024-02-16T12:40:15.250Z,100251.66
2024-02-16T12:43:17.833Z,100249.72
2024-02-16T12:46:21.571Z,100253.19
2024-02-16T12:49:24.166Z,100241.50
2024-02-16T12:52:28.015Z,100239.56
2024-02-16T12:55:31.694Z,100243.66
2024-02-16T12:58:34.429Z,100242.16
2024-02-16T13:01:37.236Z,100242.69
2024-02-16T13:04:40.212Z,100234.56
2024-02-16T13:07:44.391Z,100236.53
2024-02-16T13:10:47.060Z,100231.28
2024-02-16T13:13:49.665Z,100231.00
2024-02-16T13:16:52.164Z,100234.22
2024-02-16T13:19:54.727Z,100229.84
2024-02-16T13:22:58.568Z,100222.69
2024-02-16T13:26:01.058Z,100230.25
2024-02-16T13:29:04.036Z,100223.97
2024-02-16T13:32:06.919Z,100218.78
2024-02-16T13:35:09.875Z,100213.22
2024-02-16T13:38:15.062Z,100211.03
2024-02-16T13:41:20.371Z,100220.56
2024-02-16T13:44:23.479Z,100238.88
2024-02-16T13:47:26.186Z,100222.16
2024-02-16T13:50:28.688Z,100229.31
2024-02-16T13:53:35.002Z,100232.53
2024-02-16T13:56:39.746Z,100224.81
2024-02-16T13:59:42.679Z,100221.09
2024-02-16T14:02:45.936Z,100220.47
2024-02-16T14:05:48.757Z,100230.19
2024-02-16T14:08:54.136Z,100226.78
2024-02-16T14:12:00.335Z,100227.28
2024-02-16T14:15:03.060Z,100225.59
2024-02-16T14:18:12.052Z,100228.16
2024-02-16T14:21:22.604Z,100226.16
2024-02-16T14:24:27.461Z,100218.59
2024-02-16T14:27:30.818Z,100222.94
2024-02-16T14:30:34.666Z,100219.50
2024-02-16T14:33:37.813Z,100219.13
2024-02-16T14:36:40.554Z,100217.97
2024-02-16T14:39:44.471Z,100217.56
2024-02-16T14:42:47.041Z,100219.41
2024-02-16T14:45:49.583Z,100220.41
2024-02-16T14:48:53.135Z,100211.06
2024-02-16T14:51:56.787Z,100220.19
2024-02-16T14:55:01.479Z,100233.00
2024-02-16T14:58:05.578Z,100228.53
2024-02-16T15:01:10.243Z,100234.47
2024-02-16T15:04:13.169Z,100235.53
2024-02-16T15:07:15.927Z,100231.91
2024-02-16T15:10:19.995Z,100225.88
2024-02-16T15:13:24.721Z,100231.78
2024-02-16T15:16:27.228Z,100237.69
2024-02-16T15:19:29.969Z,100236.84
2024-02-16T15:22:41.616Z,100230.44
2024-02-16T15:25:50.312Z,100232.88
2024-02-16T15:28:52.845Z,100234.91
2024-02-16T15:31:56.495Z,100240.25
2024-02-16T15:34:59.096Z,100242.28
2024-02-16T15:38:02.304Z,100247.84
2024-02-16T15:41:06.284Z,100238.66
2024-02-16T15:44:09.667Z,100259.34
2024-02-16T15:47:12.796Z,100252.47
2024-02-16T15:50:15.514Z,100251.00
2024-02-16T15:53:18.040Z,100262.13
2024-02-16T15:56:22.062Z,100275.56
2024-02-16T15:59:24.657Z,100275.09
2024-02-16T16:02:27.366Z,100272.28
2024-02-16T16:05:30.994Z,100274.38
2024-02-16T16:08:33.638Z,100267.09
2024-02-16T16:11:37.665Z,100275.94
2024-02-16T16:14:40.168Z,100272.78
2024-02-16T16:17:42.712Z,100276.66
2024-02-16T16:20:45.454Z,100292.22
2024-02-16T16:23:47.949Z,100282.88
2024-02-16T16:26:53.768Z,100286.78
2024-02-16T16:29:56.366Z,100292.19
2024-02-16T16:32:59.028Z,100296.03
2024-02-16T16:36:04.278Z,100299.28
2024-02-16T16:39:06.886Z,100297.66
2024-02-16T16:42:10.753Z,100305.66
2024-02-16T16:45:14.033Z,100309.88
2024-02-16T16:48:16.768Z,100300.78
2024-02-16T16:51:20.204Z,100311.44
2024-02-16T16:54:23.013Z,100309.34
2024-02-16T16:57:26.882Z,100303.91
2024-02-16T17:00:29.529Z,100307.53
2024-02-16T17:03:32.305Z,100317.88
2024-02-16T17:06:36.704Z,100326.50
2024-02-16T17:09:39.357Z,100330.16
2024-02-16T17:12:46.379Z,100318.50
2024-02-16T17:15:49.247Z,100312.78
2024-02-16T17:18:51.913Z,100305.03
2024-02-16T17:21:54.564Z,100296.56
2024-02-16T17:24:57.058Z,100295.84
2024-02-16T17:28:00.949Z,100284.69
2024-02-16T17:31:03.891Z,100275.75
2024-02-16T17:34:09.098Z,100278.22
2024-02-16T17:37:12.137Z,100273.22
2024-02-16T17:40:14.864Z,100266.41
2024-02-16T17:43:18.658Z,100268.09
2024-02-16T17:46:21.266Z,100261.09
2024-02-16T17:49:27.290Z,100257.25
2024-02-16T17:52:31.525Z,100257.25
2024-02-16T17:55:35.034Z,100257.06
2024-02-16T17:58:38.945Z,100257.25
2024-02-16T18:01:43.093Z,100252.69
2024-02-16T18:04:46.135Z,100246.41
2024-02-16T18:07:49.066Z,100237.06
2024-02-16T18:10:53.182Z,100237.19
2024-02-16T18:13:57.029Z,100233.88
2024-02-16T18:17:00.515Z,100238.44
2024-02-16T18:20:04.597Z,100241.19
2024-02-16T18:23:07.360Z,100234.41
2024-02-16T18:26:10.037Z,100224.53
2024-02-16T18:29:13.875Z,100219.88
2024-02-16T18:32:16.568Z,100215.72
2024-02-16T18:35:19.110Z,100206.50
2024-02-16T18:38:21.655Z,100202.22
2024-02-16T18:41:24.167Z,100198.13
2024-02-16T18:44:27.948Z,100196.31
2024-02-16T18:47:30.616Z,100193.78
2024-02-16T18:50:33.098Z,100186.75
2024-02-16T18:53:35.557Z,100180.50
2024-02-16T18:56:38.601Z,100185.88
2024-02-16T18:59:42.388Z,100187.81
2024-02-16T19:02:45.035Z,100191.63
2024-02-16T19:05:52.280Z,100186.44
2024-02-16T19:08:55.488Z,100182.81
2024-02-16T19:11:58.058Z,100188.88
2024-02-16T19:15:03.297Z,100185.03
2024-02-16T19:18:08.916Z,100180.59
2024-02-16T19:21:11.782Z,100178.28
2024-02-16T19:24:17.689Z,100182.19
2024-02-16T19:27:22.535Z,100183.25
2024-02-16T19:30:26.523Z,100190.88
2024-02-16T19:33:29.261Z,100194.19
2024-02-16T19:36:31.975Z,100198.47
2024-02-16T19:39:34.617Z,100206.34
2024-02-16T19:42:37.306Z,100221.31
2024-02-16T19:45:41.168Z,100219.50
2024-02-16T19:48:43.850Z,100223.19
2024-02-16T19:51:46.539Z,100221.47
2024-02-16T19:54:49.146Z,100225.41
2024-02-16T19:57:52.007Z,100234.56
2024-02-16T20:00:56.225Z,100233.03
2024-02-16T20:03:59.620Z,100226.16
2024-02-16T20:07:02.354Z,100228.69
2024-02-16T20:10:06.169Z,100229.34
2024-02-16T20:13:09.795Z,100233.16
2024-02-16T20:16:15.260Z,100231.44
2024-02-16T20:19:17.937Z,100236.75
2024-02-16T20:22:20.636Z,100235.25
2024-02-16T20:25:23.723Z,100237.06
2024-02-16T20:28:26.341Z,100236.97
2024-02-16T20:31:30.202Z,100233.34
2024-02-16T20:34:33.010Z,100239.59
2024-02-16T20:37:35.602Z,100238.47
2024-02-16T20:40:38.158Z,100238.56
2024-02-16T20:43:40.657Z,100240.25
2024-02-16T20:46:44.568Z,100257.50
2024-02-16T20:49:47.238Z,100255.97
2024-02-16T20:52:51.557Z,100258.72
2024-02-16T20:55:54.221Z,100247.06
2024-02-16T20:58:56.735Z,100253.31
2024-02-16T21:02:00.554Z,100260.16
2024-02-16T21:05:04.147Z,100260.53
2024-02-16T21:08:07.566Z,100263.19
2024-02-16T21:11:11.547Z,100269.03
2024-02-16T21:14:14.081Z,100270.50
2024-02-16T21:17:17.950Z,100272.69
2024-02-16T21:20:21.147Z,100270.59
2024-02-16T21:23:23.666Z,100279.53
2024-02-16T21:26:26.161Z,100275.78
2024-02-16T21:29:28.715Z,100282.06
2024-02-16T21:32:32.663Z,100286.53
2024-02-16T21:35:35.763Z,100287.59
2024-02-16T21:38:38.551Z,100292.13
2024-02-16T21:41:41.291Z,100297.31
2024-02-16T21:44:43.878Z,100308.03
2024-02-16T21:47:47.728Z,100308.81
2024-02-16T21:50:50.390Z,100311.47
2024-02-16T21:53:52.976Z,100322.09
2024-02-16T21:56:55.478Z,100320.47
2024-02-16T21:59:57.966Z,100326.44
2024-02-16T22:03:04.575Z,100329.09
2024-02-16T22:06:10.060Z,100331.06
2024-02-16T22:09:12.648Z,100334.97
2024-02-16T22:12:15.522Z,100341.25
2024-02-16T22:15:18.164Z,100340.50
2024-02-16T22:18:22.674Z,100347.41
2024-02-16T22:21:30.752Z,100341.53
2024-02-16T22:24:40.468Z,100343.47
2024-02-16T22:27:43.781Z,100345.34
2024-02-16T22:30:46.359Z,100346.91
2024-02-16T22:33:50.349Z,100370.38
2024-02-16T22:36:52.881Z,100365.94
2024-02-16T22:39:55.408Z,100368.19
2024-02-16T22:42:57.972Z,100381.00
2024-02-16T22:46:00.509Z,100391.78
2024-02-16T22:49:04.998Z,100389.25
2024-02-16T22:52:07.948Z,100389.91
2024-02-16T22:55:10.893Z,100381.13
2024-02-16T22:58:13.589Z,100389.00
2024-02-16T23:01:16.806Z,100392.91
2024-02-16T23:04:20.809Z,100403.59
2024-02-16T23:07:25.082Z,100410.22
2024-02-16T23:10:27.962Z,100417.53
2024-02-16T23:13:30.487Z,100421.19
2024-02-16T23:16:33.530Z,100420.09
2024-02-16T23:19:38.761Z,100439.94
2024-02-16T23:22:59.700Z,100445.16
2024-02-16T23:26:02.206Z,100452.69
2024-02-16T23:29:04.830Z,100468.31
2024-02-16T23:32:08.911Z,100463.03
2024-02-16T23:35:13.607Z,100470.28
2024-02-16T23:38:16.115Z,100462.22
2024-02-16T23:41:18.637Z,100477.31
2024-02-16T23:44:21.534Z,100494.75
2024-02-16T23:47:24.579Z,100478.38
2024-02-16T23:50:30.293Z,100489.56
2024-02-16T23:53:33.882Z,100484.94
2024-02-16T23:56:36.371Z,100499.34
2024-02-16T23:59:38.875Z,100505.53
